Terminal Aerodrome Forecast
Issued by NWS Denver/Boulder, CO

Home | Current Version | Previous Version | Text Only | Print | Product List | Glossary On
Versions: 1 2 3 4 5 6 7 8 9 10 11 12 13 14 15 16 17 18 19 20 21 22 23 24 25 26 27 28 29 30 31 32 33 34 35 36 37 38
000
FTUS45 KBOU 172218 AAC
TAFDEN
TAF AMD
KDEN 172218Z 1722/1824 35011KT P6SM VCTS SCT080CB BKN140
      TEMPO 1722/1724 VRB15G25KT
     FM180000 08011KT P6SM FEW090 SCT140 BKN220
     FM180200 14010KT P6SM FEW090 SCT140
     FM180500 22011KT P6SM FEW140 SCT220
     FM181500 VRB05KT P6SM FEW120
     FM181900 05009KT P6SM FEW100 SCT220=

USA.gov is the U.S. government's official web portal to all federal, state and local government web resources and services.